Time;durP1;ratioP1;P1;durP2;ratioP2;P2;SDS_P1;SDS_P2;PMS_P1;PMS_P2;Temp;Humidity;BMP_temperature;BMP_pressure;BME280_temperature;BME280_humidity;BME280_pressure;Samples;Min_cycle;Max_cycle;Signal;HPM_P1;HPM_P2
2023/01/25 00:01:04;;;;;;;57.78;28.52;;;;;;;1.23;98.80;102378.67;1748789;82;25595;-43
2023/01/25 00:03:30;;;;;;;53.55;27.15;;;;;;;1.24;98.83;102386.15;1748920;82;25626;-42
2023/01/25 00:06:02;;;;;;;51.53;28.32;;;;;;;1.22;98.86;102383.67;1748834;82;27437;-43
2023/01/25 00:08:30;;;;;;;52.13;27.42;;;;;;;1.21;98.92;102383.38;1748765;82;25735;-43
2023/01/25 00:10:59;;;;;;;58.28;28.83;;;;;;;1.21;98.81;102379.87;1748847;82;25625;-44
2023/01/25 00:13:27;;;;;;;56.65;27.52;;;;;;;1.22;98.77;102388.19;1748864;82;25676;-43
2023/01/25 00:15:53;;;;;;;54.40;27.22;;;;;;;1.19;98.87;102378.76;1748833;82;25438;-44
2023/01/25 00:18:20;;;;;;;57.60;28.57;;;;;;;1.18;98.87;102376.28;1748754;82;27472;-42
2023/01/25 00:20:47;;;;;;;53.65;26.48;;;;;;;1.19;98.92;102375.25;1748854;82;25611;-43
2023/01/25 00:23:13;;;;;;;55.88;27.58;;;;;;;1.21;98.95;102372.72;1748914;82;25613;-43
2023/01/25 00:25:40;;;;;;;52.95;26.97;;;;;;;1.22;98.85;102365.53;1748921;82;25481;-42
2023/01/25 00:28:06;;;;;;;53.65;29.12;;;;;;;1.18;98.60;102365.11;1748812;82;25598;-45
2023/01/25 00:30:35;;;;;;;51.35;28.23;;;;;;;1.18;98.64;102357.62;1748827;82;28027;-42
2023/01/25 00:33:07;;;;;;;53.23;29.42;;;;;;;1.19;98.75;102359.25;1748998;82;25538;-44
2023/01/25 00:35:35;;;;;;;53.15;28.60;;;;;;;1.19;98.76;102355.25;1748921;82;25501;-44
2023/01/25 00:38:06;;;;;;;50.83;26.42;;;;;;;1.18;98.69;102358.44;1748659;82;25560;-44
2023/01/25 00:40:35;;;;;;;49.73;26.45;;;;;;;1.17;98.68;102359.45;1746408;82;25484;-43
2023/01/25 00:43:01;;;;;;;48.75;25.75;;;;;;;1.17;98.60;102362.11;1743010;82;27540;-44
2023/01/25 00:45:30;;;;;;;48.02;25.62;;;;;;;1.17;98.47;102362.63;1742830;82;25604;-43
2023/01/25 00:47:56;;;;;;;41.37;22.52;;;;;;;1.15;98.35;102352.16;1743145;82;25441;-43
2023/01/25 00:50:26;;;;;;;39.90;21.50;;;;;;;1.14;98.18;102348.35;1742836;82;25619;-42
2023/01/25 00:52:52;;;;;;;36.45;20.40;;;;;;;1.12;97.81;102345.88;1742994;82;25375;-42
2023/01/25 00:55:18;;;;;;;40.67;21.95;;;;;;;1.06;97.46;102335.50;1742854;82;27531;-42
2023/01/25 00:57:45;;;;;;;42.17;21.65;;;;;;;1.07;97.44;102337.64;1742014;82;25383;-44
2023/01/25 01:00:16;;;;;;;36.10;20.08;;;;;;;1.05;97.30;102330.36;1742686;82;25777;-42
2023/01/25 01:02:46;;;;;;;37.58;19.62;;;;;;;1.03;97.04;102336.40;1742939;82;25642;-43
2023/01/25 01:05:14;;;;;;;36.15;19.20;;;;;;;0.99;96.94;102331.97;1742927;82;25456;-42
2023/01/25 01:07:40;;;;;;;34.98;18.62;;;;;;;0.96;96.84;102329.69;1742940;82;28185;-41
2023/01/25 01:10:11;;;;;;;35.70;19.03;;;;;;;0.94;96.90;102330.41;1742885;82;31420;-42
2023/01/25 01:12:37;;;;;;;30.85;18.25;;;;;;;0.93;96.96;102337.55;1742998;82;25588;-41
2023/01/25 01:15:06;;;;;;;35.78;19.02;;;;;;;0.93;96.94;102333.55;1742965;82;35263;-41
2023/01/25 01:17:32;;;;;;;32.10;18.40;;;;;;;0.91;96.97;102332.93;1743133;82;25636;-42
2023/01/25 01:19:58;;;;;;;32.55;18.25;;;;;;;0.92;97.04;102341.77;1742861;82;27541;-42
2023/01/25 01:22:24;;;;;;;31.37;17.85;;;;;;;0.91;97.01;102338.78;1742803;82;25362;-43
2023/01/25 01:24:50;;;;;;;30.63;17.47;;;;;;;0.90;96.87;102339.30;1742929;82;26193;-43
2023/01/25 01:27:17;;;;;;;30.57;17.42;;;;;;;0.86;96.53;102339.87;1715670;82;25645;-43
2023/01/25 01:29:43;;;;;;;30.25;16.93;;;;;;;0.85;96.56;102337.72;1742972;82;25473;-44
2023/01/25 01:32:09;;;;;;;31.77;17.00;;;;;;;0.84;96.52;102340.58;1742915;82;27564;-44
2023/01/25 01:34:37;;;;;;;29.55;17.02;;;;;;;0.82;96.37;102335.44;1742817;82;25378;-42
2023/01/25 01:37:04;;;;;;;31.73;17.20;;;;;;;0.82;96.43;102335.92;1742913;82;25388;-43
2023/01/25 01:39:32;;;;;;;32.30;16.80;;;;;;;0.81;96.46;102332.97;1715200;82;25471;-47
2023/01/25 01:41:58;;;;;;;30.65;17.25;;;;;;;0.78;96.45;102324.83;1747764;82;25528;-44
2023/01/25 01:44:51;;;;;;;32.78;18.50;;;;;;;0.78;96.44;102322.17;1748714;82;27459;-41
2023/01/25 01:47:23;;;;;;;33.95;17.48;;;;;;;0.76;96.24;102320.22;1748782;82;25390;-43
2023/01/25 01:49:58;;;;;;;31.45;16.87;;;;;;;0.74;96.23;102319.08;1748814;82;25555;-43
2023/01/25 01:52:30;;;;;;;30.50;17.32;;;;;;;0.74;96.27;102331.06;1748760;82;25590;-44
2023/01/25 01:55:07;;;;;;;32.03;17.92;;;;;;;0.74;96.24;102319.59;1747946;82;25558;-43
2023/01/25 01:57:41;;;;;;;33.20;18.35;;;;;;;0.72;96.18;102318.45;1748816;82;28036;-43
2023/01/25 02:00:22;;;;;;;33.70;19.17;;;;;;;0.71;96.17;102326.11;1748597;82;25611;-42
2023/01/25 02:02:51;;;;;;;31.50;19.00;;;;;;;0.69;95.95;102321.50;1748619;82;25569;-43
2023/01/25 02:05:35;;;;;;;26.12;17.57;;;;;;;0.67;95.73;102312.06;1748926;82;25638;-41
2023/01/25 02:08:06;;;;;;;32.38;19.70;;;;;;;0.65;95.63;102310.92;1748741;82;25389;-41
2023/01/25 02:10:36;;;;;;;31.95;19.10;;;;;;;0.64;95.61;102307.94;1748806;82;27662;-41
2023/01/25 02:13:02;;;;;;;31.42;18.25;;;;;;;0.64;95.62;102308.45;1748681;82;25382;-41
2023/01/25 02:15:41;;;;;;;32.93;18.57;;;;;;;0.61;95.60;102306.17;1739793;81;25566;-40
2023/01/25 02:18:10;;;;;;;33.15;18.85;;;;;;;0.59;95.46;102301.03;1766544;81;25995;-41
2023/01/25 02:20:45;;;;;;;29.05;19.55;;;;;;;0.58;95.51;102296.73;1747216;82;25565;-41
2023/01/25 02:23:32;;;;;;;31.27;19.25;;;;;;;0.55;95.33;102291.80;1766347;81;27508;-41
2023/01/25 02:26:04;;;;;;;33.05;19.20;;;;;;;0.53;95.24;102293.83;1766428;81;25945;-41
2023/01/25 02:28:49;;;;;;;35.15;20.15;;;;;;;0.51;95.14;102289.18;1766487;81;25542;-41
2023/01/25 02:31:17;;;;;;;30.50;19.55;;;;;;;0.49;95.25;102287.22;1766533;81;27667;-42
2023/01/25 02:33:44;;;;;;;32.58;19.95;;;;;;;0.48;95.28;102293.59;1747130;82;25579;-41
2023/01/25 02:36:25;;;;;;;29.65;18.87;;;;;;;0.46;95.26;102292.93;1766430;81;29643;-42
2023/01/25 02:39:02;;;;;;;30.45;18.80;;;;;;;0.39;95.21;102279.55;1766384;81;25453;-43
2023/01/25 02:41:39;;;;;;;28.77;18.70;;;;;;;0.44;95.15;102289.12;1759396;81;25496;-43
2023/01/25 02:44:12;;;;;;;27.95;17.73;;;;;;;0.43;95.08;102290.67;1764280;81;25552;-42
2023/01/25 02:46:44;;;;;;;29.05;17.57;;;;;;;0.42;95.04;102295.67;1764328;81;25548;-41
2023/01/25 02:49:12;;;;;;;26.05;16.77;;;;;;;0.38;94.88;102292.58;1764384;81;28169;-43
2023/01/25 02:51:44;;;;;;;27.55;17.77;;;;;;;0.36;94.57;102286.11;1764183;81;25426;-42
2023/01/25 02:54:16;;;;;;;29.70;17.50;;;;;;;0.32;94.44;102276.87;1766527;81;25548;-41
2023/01/25 02:56:44;;;;;;;26.85;17.82;;;;;;;0.30;94.34;102280.72;1747115;82;25658;-43
2023/01/25 02:59:12;;;;;;;28.25;18.07;;;;;;;0.28;94.37;102275.59;1747106;82;25473;-45
2023/01/25 03:01:42;;;;;;;25.37;16.52;;;;;;;0.28;94.37;102281.42;1747263;82;28145;-47
2023/01/25 03:04:11;;;;;;;29.40;17.45;;;;;;;0.25;94.28;102279.95;1747218;82;25464;-41
2023/01/25 03:06:40;;;;;;;28.17;17.35;;;;;;;0.24;94.08;102269.50;1747269;82;25595;-41
2023/01/25 03:09:10;;;;;;;28.27;18.40;;;;;;;0.22;94.04;102264.88;1766653;81;25540;-42
2023/01/25 03:11:37;;;;;;;32.42;18.32;;;;;;;0.19;94.06;102252.79;1766505;81;25414;-43
2023/01/25 03:14:03;;;;;;;28.17;17.30;;;;;;;0.20;94.16;102251.76;1766409;81;27467;-43
2023/01/25 03:16:32;;;;;;;28.45;18.10;;;;;;;0.20;94.07;102244.29;1766329;81;25595;-43
2023/01/25 03:18:59;;;;;;;27.42;17.02;;;;;;;0.16;93.73;102247.33;1747216;82;25537;-46
2023/01/25 03:21:25;;;;;;;27.95;17.07;;;;;;;0.16;93.73;102247.33;1766343;81;25563;-41
2023/01/25 03:24:00;;;;;;;25.68;16.85;;;;;;;0.15;93.84;102244.37;1766497;81;25610;-44
2023/01/25 03:26:29;;;;;;;31.20;18.15;;;;;;;0.16;93.90;102239.86;1766489;81;28490;-42
2023/01/25 03:28:57;;;;;;;29.98;18.67;;;;;;;0.14;93.75;102237.39;1766336;81;25517;-42
2023/01/25 03:31:25;;;;;;;29.90;18.42;;;;;;;0.11;93.70;102219.14;1766406;81;25594;-43
2023/01/25 03:33:53;;;;;;;30.57;18.83;;;;;;;0.09;93.69;102224.34;1766641;81;25834;-42
2023/01/25 03:36:20;;;;;;;27.73;17.60;;;;;;;0.09;93.81;102232.33;1747096;82;25479;-42
2023/01/25 03:38:46;;;;;;;29.52;18.90;;;;;;;0.08;93.73;102221.36;1766478;81;27397;-42
2023/01/25 03:41:13;;;;;;;30.72;19.05;;;;;;;0.06;93.74;102224.73;1764149;81;25501;-42
2023/01/25 03:43:41;;;;;;;30.50;18.82;;;;;;;0.05;93.63;102210.61;1741376;82;25588;-42
2023/01/25 03:46:09;;;;;;;30.82;18.52;;;;;;;0.04;93.63;102241.40;1752325;81;25483;-43
2023/01/25 03:48:38;;;;;;;29.60;18.10;;;;;;;0.05;93.76;102244.36;1752432;81;25616;-44
2023/01/25 03:51:06;;;;;;;29.50;18.20;;;;;;;0.03;93.72;102235.23;1752379;81;27333;-44
2023/01/25 03:53:34;;;;;;;29.45;17.85;;;;;;;0.03;93.74;102237.08;1724465;81;27117;-43
2023/01/25 03:56:09;;;;;;;27.90;17.17;;;;;;;0.03;93.75;102233.90;1752384;81;25387;-45
2023/01/25 03:58:38;;;;;;;29.52;17.77;;;;;;;0.02;93.73;102230.09;1752445;81;25642;-45
2023/01/25 04:01:07;;;;;;;28.12;16.67;;;;;;;0.03;93.70;102225.10;1752493;81;25463;-44
2023/01/25 04:03:36;;;;;;;29.55;17.15;;;;;;;0.01;93.70;102214.65;1752531;81;27375;-43
2023/01/25 04:06:05;;;;;;;29.80;17.90;;;;;;;0.01;93.48;102219.16;1752422;81;25463;-43
2023/01/25 04:08:33;;;;;;;28.75;18.42;;;;;;;-0.04;93.30;102209.89;1752542;81;25632;-43
2023/01/25 04:11:07;;;;;;;31.90;17.90;;;;;;;-0.02;93.38;102211.03;1752287;81;25519;-43
2023/01/25 04:13:36;;;;;;;28.90;17.17;;;;;;;-0.02;93.32;102197.73;1752410;81;25455;-44
2023/01/25 04:16:07;;;;;;;30.32;18.30;;;;;;;-0.05;93.17;102206.94;1752550;81;27323;-43
2023/01/25 04:18:34;;;;;;;29.18;18.55;;;;;;;-0.05;93.10;102208.75;1752329;81;25614;-42
2023/01/25 04:21:02;;;;;;;28.35;17.40;;;;;;;-0.08;93.00;102204.65;1752319;81;25416;-42
2023/01/25 04:23:28;;;;;;;28.70;17.60;;;;;;;-0.09;93.05;102210.97;1752415;81;25538;-44
2023/01/25 04:26:04;;;;;;;29.72;17.30;;;;;;;-0.11;93.05;102203.69;1752349;81;25419;-43
2023/01/25 04:28:35;;;;;;;27.87;17.65;;;;;;;-0.11;92.92;102202.36;1752432;81;28072;-42
2023/01/25 04:31:05;;;;;;;30.92;18.20;;;;;;;-0.12;92.94;102207.38;1752340;81;25428;-42
2023/01/25 04:33:34;;;;;;;28.32;16.67;;;;;;;-0.13;92.99;102204.40;1752536;81;25436;-41
2023/01/25 04:36:03;;;;;;;28.63;17.47;;;;;;;-0.13;92.82;102203.58;1752685;81;25447;-43
2023/01/25 04:38:29;;;;;;;32.03;18.15;;;;;;;-0.15;92.90;102200.27;1725046;81;25643;-43
2023/01/25 04:40:56;;;;;;;29.18;17.37;;;;;;;-0.14;93.02;102200.59;1752457;81;27336;-41
2023/01/25 04:43:22;;;;;;;32.20;18.50;;;;;;;-0.14;92.98;102200.08;1752379;81;25720;-42
2023/01/25 04:45:48;;;;;;;30.37;18.52;;;;;;;-0.16;92.85;102191.47;1752545;81;25732;-41
2023/01/25 04:48:17;;;;;;;29.27;17.85;;;;;;;-0.15;92.91;102197.61;1752460;81;27477;-43
2023/01/25 04:50:45;;;;;;;30.83;19.37;;;;;;;-0.14;93.02;102195.27;1752777;81;25587;-42
2023/01/25 04:53:14;;;;;;;26.73;17.80;;;;;;;-0.15;92.96;102195.79;1752774;81;27389;-42
2023/01/25 04:55:45;;;;;;;30.60;17.55;;;;;;;-0.16;92.79;102182.68;1752427;81;25906;-43
2023/01/25 04:58:15;;;;;;;31.02;17.50;;;;;;;-0.17;92.66;102190.33;1752555;81;25540;-42
2023/01/25 05:00:41;;;;;;;;;;;;;;;-0.18;92.78;102180.20;1755140;81;25630;-42
2023/01/25 05:03:07;;;;;;;30.32;16.93;;;;;;;-0.18;92.78;102188.19;1749629;81;25627;-42
2023/01/25 05:05:34;;;;;;;31.00;18.60;;;;;;;-0.21;92.83;102184.57;1752477;81;27370;-43
2023/01/25 05:08:00;;;;;;;35.58;20.25;;;;;;;-0.21;93.00;102192.03;1752405;81;25540;-43
2023/01/25 05:10:26;;;;;;;34.00;19.30;;;;;;;-0.22;93.01;102185.09;1752509;81;25407;-43
2023/01/25 05:12:53;;;;;;;34.08;19.90;;;;;;;-0.21;92.99;102187.23;1752496;81;25374;-42
2023/01/25 05:15:19;;;;;;;33.23;19.48;;;;;;;-0.20;93.08;102183.05;1752539;81;32685;-42
2023/01/25 05:17:46;;;;;;;31.80;18.85;;;;;;;-0.20;93.02;102184.91;1752598;81;28432;-42
2023/01/25 05:20:13;;;;;;;31.25;19.12;;;;;;;-0.21;93.06;102178.73;1752320;81;25445;-42
2023/01/25 05:22:39;;;;;;;36.40;21.42;;;;;;;-0.22;92.85;102177.11;1752551;81;25694;-42
2023/01/25 05:26:59;;;;;;;33.48;20.97;;;;;;;-0.23;92.84;102179.95;1752468;81;26035;-47
2023/01/25 05:27:36;;;;;;;31.95;19.52;;;;;;;-0.25;92.73;102180.14;1748017;81;25399;-42
2023/01/25 05:30:06;;;;;;;37.48;22.25;;;;;;;-0.28;92.45;102177.05;1752495;81;29650;-42
2023/01/25 05:32:32;;;;;;;35.60;19.95;;;;;;;-0.31;92.29;102181.41;1752419;81;25782;-44
2023/01/25 05:34:58;;;;;;;40.20;22.33;;;;;;;-0.36;92.33;102175.31;1752525;81;28186;-44
2023/01/25 05:37:24;;;;;;;38.42;23.40;;;;;;;-0.38;92.34;102178.68;1752420;81;25392;-42
2023/01/25 05:39:50;;;;;;;36.53;20.97;;;;;;;-0.41;92.16;102175.91;1752510;81;32318;-42
2023/01/25 05:42:18;;;;;;;37.75;22.22;;;;;;;-0.43;92.14;102179.75;1752330;81;27360;-42
2023/01/25 05:44:46;;;;;;;37.98;21.70;;;;;;;-0.46;92.21;102175.66;1752420;81;25788;-43
2023/01/25 05:47:18;;;;;;;40.28;23.35;;;;;;;-0.49;92.14;102179.20;1752463;81;25440;-44
2023/01/25 05:49:46;;;;;;;44.15;24.45;;;;;;;-0.50;92.33;102188.17;1752481;81;25396;-41
2023/01/25 05:52:17;;;;;;;47.03;25.70;;;;;;;-0.52;92.22;102181.72;1752509;81;25569;-42
2023/01/25 05:54:43;;;;;;;47.40;25.00;;;;;;;-0.55;92.19;102176.77;1752489;81;27350;-42
2023/01/25 05:57:09;;;;;;;47.38;26.77;;;;;;;-0.56;92.21;102179.13;1724228;82;25728;-41
2023/01/25 05:59:36;;;;;;;51.42;26.55;;;;;;;-0.59;92.23;102172.34;1750292;81;25561;-43
2023/01/25 06:02:02;;;;;;;49.53;27.13;;;;;;;-0.61;92.11;102172.23;1750271;81;25392;-42
2023/01/25 06:04:29;;;;;;;49.60;27.58;;;;;;;-0.62;92.05;102163.92;1750309;82;25510;-41
2023/01/25 06:06:55;;;;;;;55.73;29.23;;;;;;;-0.64;92.08;102156.13;1750303;82;27345;-42
2023/01/25 06:09:23;;;;;;;54.40;27.62;;;;;;;-0.67;92.12;102153.84;1750352;82;25536;-41
2023/01/25 06:11:50;;;;;;;54.25;27.30;;;;;;;-0.67;92.08;102158.34;1750406;82;25619;-43
2023/01/25 06:14:18;;;;;;;54.80;28.15;;;;;;;-0.71;91.81;102154.43;1750289;82;25554;-42
2023/01/25 06:16:44;;;;;;;54.25;28.40;;;;;;;-0.75;91.76;102159.27;1750388;82;25542;-42
2023/01/25 06:19:13;;;;;;;52.45;27.87;;;;;;;-0.79;91.77;102154.02;1750345;81;27930;-45
2023/01/25 06:21:39;;;;;;;56.37;28.63;;;;;;;-0.79;92.07;102156.68;1750514;82;25541;-42
2023/01/25 06:24:08;;;;;;;60.35;29.75;;;;;;;-0.79;92.25;102162.81;1750281;82;25595;-42
2023/01/25 06:26:34;;;;;;;60.65;29.75;;;;;;;-0.79;92.31;102163.33;1750470;82;25554;-43
2023/01/25 06:29:00;;;;;;;56.15;29.42;;;;;;;-0.77;92.32;102168.78;1750299;81;25504;-42
2023/01/25 06:31:27;;;;;;;57.38;28.38;;;;;;;-0.79;92.10;102169.97;1750281;82;27466;-42
2023/01/25 06:33:53;;;;;;;57.88;30.35;;;;;;;-0.82;92.08;102168.52;1750319;82;25563;-42
2023/01/25 06:36:21;;;;;;;54.25;28.32;;;;;;;-0.81;92.38;102162.70;1750471;82;25392;-41
2023/01/25 06:38:51;;;;;;;62.10;31.07;;;;;;;-0.79;92.47;102165.47;1750634;81;25479;-42
2023/01/25 06:41:20;;;;;;;56.35;28.23;;;;;;;-0.78;92.52;102164.98;1749770;82;25682;-42
2023/01/25 06:43:50;;;;;;;58.00;28.70;;;;;;;-0.76;92.56;102162.95;1750060;81;27248;-42
2023/01/25 06:46:19;;;;;;;59.95;29.95;;;;;;;-0.74;92.65;102160.93;1749656;81;25738;-42
2023/01/25 06:48:45;;;;;;;56.67;29.13;;;;;;;-0.74;92.44;102162.26;1750030;81;25732;-42
2023/01/25 06:51:14;;;;;;;65.17;30.43;;;;;;;-0.74;92.32;102162.26;1749692;81;25879;-42
2023/01/25 06:53:45;;;;;;;58.02;29.98;;;;;;;-0.75;92.39;102161.92;1749916;82;25714;-42
2023/01/25 06:56:16;;;;;;;65.25;31.90;;;;;;;-0.73;92.45;102145.80;1749361;82;27798;-43
2023/01/25 06:58:46;;;;;;;64.07;29.92;;;;;;;-0.76;92.29;102149.16;1749904;82;25761;-42
2023/01/25 07:01:29;;;;;;;48.25;23.95;;;;;;;-0.75;92.21;102143.33;1750497;82;25550;-43
2023/01/25 07:03:59;;;;;;;81.28;37.13;;;;;;;-0.78;91.93;102141.07;1733145;82;25950;-43
2023/01/25 07:06:31;;;;;;;64.40;33.85;;;;;;;-0.80;91.98;102140.41;1724680;82;25595;-41
2023/01/25 07:09:04;;;;;;;65.95;31.70;;;;;;;-0.80;92.05;102135.09;1750367;82;27294;-42
2023/01/25 07:11:30;;;;;;;63.92;31.15;;;;;;;-0.82;92.03;102134.47;1750272;81;25560;-41
2023/01/25 07:13:57;;;;;;;66.87;30.90;;;;;;;-0.83;92.08;102130.18;1750367;82;25554;-42
2023/01/25 07:16:23;;;;;;;64.25;31.82;;;;;;;-0.86;91.92;102123.91;1750235;81;25410;-42
2023/01/25 07:18:49;;;;;;;66.47;31.30;;;;;;;-0.88;91.92;102124.09;1750272;82;25453;-41
2023/01/25 07:21:21;;;;;;;66.05;31.23;;;;;;;-0.88;92.10;102126.75;1750207;82;27361;-42
2023/01/25 07:23:52;;;;;;;65.30;32.28;;;;;;;-0.86;92.12;102124.72;1750297;82;25600;-40
2023/01/25 07:26:24;;;;;;;66.60;32.10;;;;;;;-0.87;92.06;102127.08;1750250;82;25562;-42
2023/01/25 07:28:53;;;;;;;69.47;32.60;;;;;;;-0.87;92.08;102121.77;1750315;82;25515;-41
2023/01/25 07:31:21;;;;;;;67.30;31.82;;;;;;;-0.87;92.01;102119.59;1750478;82;25646;-42
2023/01/25 07:33:55;;;;;;;73.35;33.10;;;;;;;-0.90;91.90;102127.45;1750232;82;27391;-41
2023/01/25 07:36:24;;;;;;;72.27;31.97;;;;;;;-0.89;92.08;102130.41;1750249;82;25608;-41
2023/01/25 07:38:56;;;;;;;70.47;31.12;;;;;;;-0.90;92.11;102130.11;1750415;82;25545;-42
2023/01/25 07:41:25;;;;;;;70.55;32.38;;;;;;;-0.89;92.11;102125.09;1750231;81;25436;-43
2023/01/25 07:43:55;;;;;;;65.65;31.42;;;;;;;-0.91;92.02;102125.78;1749267;81;25533;-42
2023/01/25 07:46:23;;;;;;;71.05;33.63;;;;;;;-0.90;92.05;102126.60;1748969;82;27506;-42
2023/01/25 07:48:53;;;;;;;69.37;32.20;;;;;;;-0.89;92.14;102126.94;1748996;82;25448;-41
2023/01/25 07:51:22;;;;;;;74.95;32.10;;;;;;;-0.88;92.14;102128.08;1725323;82;25588;-43
2023/01/25 07:53:56;;;;;;;79.17;31.55;;;;;;;-0.89;92.05;102126.94;1725199;82;25481;-44
2023/01/25 07:56:31;;;;;;;66.50;30.68;;;;;;;-0.87;92.24;102123.58;1748877;82;25570;-42
2023/01/25 07:59:03;;;;;;;67.85;32.88;;;;;;;-0.87;92.20;102127.08;1747731;82;27579;-43
2023/01/25 08:01:33;;;;;;;71.67;34.03;;;;;;;-0.87;92.24;102127.08;1748660;82;25456;-42
2023/01/25 08:04:02;;;;;;;99.87;44.50;;;;;;;-0.84;92.18;102122.69;1748875;82;25548;-44
2023/01/25 08:06:34;;;;;;;79.58;36.15;;;;;;;-0.85;92.26;102117.56;1748866;82;25558;-41
2023/01/25 08:09:08;;;;;;;71.02;33.13;;;;;;;-0.83;92.31;102118.22;1748796;82;25442;-41
2023/01/25 08:11:37;;;;;;;66.95;31.85;;;;;;;-0.81;92.40;102113.02;1748671;81;27248;-42
2023/01/25 08:14:04;;;;;;;73.52;32.58;;;;;;;-0.78;92.51;102110.51;1761267;81;25448;-42
2023/01/25 08:16:34;;;;;;;72.55;32.05;;;;;;;-0.77;92.43;102116.97;1742325;82;25562;-42
2023/01/25 08:19:03;;;;;;;78.35;34.33;;;;;;;-0.76;92.44;102115.94;1742273;82;25566;-42
2023/01/25 08:21:35;;;;;;;70.45;32.17;;;;;;;-0.73;92.37;102108.59;1761330;81;25376;-43
2023/01/25 08:24:05;;;;;;;76.50;33.13;;;;;;;-0.72;92.25;102102.28;1761296;81;27969;-41
2023/01/25 08:26:35;;;;;;;71.90;34.08;;;;;;;-0.72;91.95;102104.94;1742303;82;25569;-42
2023/01/25 08:29:01;;;;;;;;;;;;;;;-0.72;91.93;102103.09;1745008;82;25549;-42
2023/01/25 08:31:32;;;;;;;73.72;33.67;;;;;;;-0.74;91.64;102103.80;1742110;82;27530;-40
2023/01/25 08:34:01;;;;;;;73.62;33.73;;;;;;;-0.74;91.74;102093.67;1760575;81;25651;-40
2023/01/25 08:36:29;;;;;;;73.45;33.73;;;;;;;-0.77;91.75;102093.05;1757628;81;27368;-42
2023/01/25 08:39:01;;;;;;;70.52;32.60;;;;;;;-0.76;91.81;102089.36;1758054;81;25571;-42
2023/01/25 08:41:32;;;;;;;68.67;32.50;;;;;;;-0.75;91.74;102086.19;1758988;81;25573;-41
2023/01/25 08:44:00;;;;;;;75.70;33.45;;;;;;;-0.71;91.94;102089.31;1758966;81;25633;-44
2023/01/25 08:46:32;;;;;;;67.82;32.70;;;;;;;-0.70;91.99;102084.30;1747263;82;25469;-44
2023/01/25 08:49:01;;;;;;;72.12;31.62;;;;;;;-0.69;91.92;102083.30;1717309;82;27508;-41
2023/01/25 08:51:30;;;;;;;;;;;;;;;-0.66;92.05;102082.41;1749721;82;25399;-43
2023/01/25 08:54:04;;;;;;;68.20;32.20;;;;;;;-0.65;91.97;102082.71;1747375;81;25523;-43
2023/01/25 08:56:32;;;;;;;67.80;31.73;;;;;;;-0.64;92.10;102081.71;1747208;82;25625;-42
2023/01/25 08:58:58;;;;;;;71.35;33.95;;;;;;;-0.62;92.05;102074.36;1747204;82;25475;-42
2023/01/25 09:01:24;;;;;;;70.10;31.25;;;;;;;-0.61;91.91;102080.52;1747224;82;27400;-42
2023/01/25 09:03:53;;;;;;;76.22;34.15;;;;;;;-0.61;91.77;102074.69;1747079;81;25682;-42
2023/01/25 09:06:21;;;;;;;77.72;33.70;;;;;;;-0.60;91.54;102069.67;1747290;82;25447;-42
2023/01/25 09:08:49;;;;;;;74.42;32.90;;;;;;;-0.63;91.35;102066.09;1747143;82;25627;-42
2023/01/25 09:11:21;;;;;;;74.10;32.23;;;;;;;-0.62;91.43;102062.40;1747202;82;25599;-40
2023/01/25 09:13:50;;;;;;;73.07;33.42;;;;;;;-0.61;91.32;102068.05;1747166;82;27336;-42
2023/01/25 09:16:28;;;;;;;70.20;35.27;;;;;;;-0.60;91.39;102060.37;1747386;82;25506;-43
2023/01/25 09:19:00;;;;;;;75.75;34.40;;;;;;;-0.60;91.26;102060.88;1747236;82;25569;-42
2023/01/25 09:21:29;;;;;;;72.45;33.45;;;;;;;-0.60;91.58;102060.37;1747149;81;25646;-42
2023/01/25 09:23:58;;;;;;;71.62;32.83;;;;;;;-0.57;91.75;102057.33;1747352;82;25471;-42
2023/01/25 09:26:26;;;;;;;75.30;33.18;;;;;;;-0.50;91.80;102060.56;1747390;81;30998;-40
2023/01/25 09:29:16;;;;;;;73.12;34.25;;;;;;;-0.51;91.59;102049.12;1747139;82;25432;-41
2023/01/25 09:31:44;;;;;;;72.27;34.58;;;;;;;-0.47;91.68;102050.89;1744933;82;25600;-43
2023/01/25 09:34:14;;;;;;;69.95;34.08;;;;;;;-0.45;91.67;102048.33;1747250;82;26007;-41
2023/01/25 09:36:40;;;;;;;;;;;;;;;-0.42;91.76;102042.64;1749863;81;25575;-42
2023/01/25 09:39:11;;;;;;;70.03;32.37;;;;;;;-0.37;91.83;102038.08;1747175;82;27416;-41
2023/01/25 09:42:02;;;;;;;67.12;33.28;;;;;;;-0.38;91.60;102030.59;1747164;82;25554;-43
2023/01/25 09:45:01;;;;;;;69.30;32.78;;;;;;;-0.34;91.51;102027.06;1758427;81;25470;-40
2023/01/25 09:47:40;;;;;;;67.97;32.38;;;;;;;-0.32;91.53;102023.70;1763488;80;26692;-40
2023/01/25 09:50:33;;;;;;;67.90;33.42;;;;;;;-0.28;91.49;102021.47;1763141;81;25598;-42
2023/01/25 09:53:23;;;;;;;72.03;34.48;;;;;;;-0.29;91.22;102015.34;1763633;81;27383;-42
2023/01/25 09:56:04;;;;;;;68.85;32.25;;;;;;;-0.30;90.89;102013.68;1763551;81;25428;-42
2023/01/25 09:58:41;;;;;;;71.15;32.78;;;;;;;-0.30;90.82;102020.33;1763546;81;25386;-43
2023/01/25 10:01:33;;;;;;;69.75;33.80;;;;;;;-0.29;90.81;102016.66;1763524;81;25546;-40
2023/01/25 10:04:11;;;;;;;;;;;;;;;-0.28;90.69;102016.96;1766284;81;25588;-43
2023/01/25 10:06:46;;;;;;;69.58;31.90;;;;;;;-0.27;90.73;102017.29;1744308;82;27387;-42
2023/01/25 10:09:43;;;;;;;70.32;33.85;;;;;;;-0.26;90.80;102016.77;1744290;82;25416;-44
2023/01/25 10:12:25;;;;;;;70.60;34.53;;;;;;;-0.25;91.03;102009.12;1763492;81;25383;-40
2023/01/25 10:14:54;;;;;;;70.25;33.42;;;;;;;-0.20;90.91;102010.69;1763425;81;25550;-42
2023/01/25 10:17:40;;;;;;;69.65;32.93;;;;;;;-0.17;90.92;102004.14;1763634;81;25576;-41
2023/01/25 10:20:22;;;;;;;78.22;35.28;;;;;;;-0.16;90.80;102004.47;1763575;81;27217;-41
2023/01/25 10:23:20;;;;;;;71.40;33.18;;;;;;;-0.14;90.82;101998.44;1763597;81;25630;-41
2023/01/25 10:26:00;;;;;;;68.50;32.13;;;;;;;-0.12;90.53;101989.25;1763353;81;25613;-43
2023/01/25 10:28:31;;;;;;;67.87;32.65;;;;;;;-0.09;90.64;101982.70;1762479;81;25929;-41
2023/01/25 10:31:06;;;;;;;64.40;32.85;;;;;;;-0.08;90.11;101977.19;1763186;81;25556;-40
2023/01/25 10:33:38;;;;;;;64.85;32.73;;;;;;;-0.10;90.07;101977.91;1763511;81;27426;-42
2023/01/25 10:36:14;;;;;;;67.22;33.15;;;;;;;-0.09;90.05;101974.72;1763414;81;25387;-43
2023/01/25 10:38:57;;;;;;;70.47;33.15;;;;;;;-0.10;89.90;101963.76;1763494;81;25538;-40
2023/01/25 10:41:39;;;;;;;66.42;33.38;;;;;;;-0.10;89.74;101959.77;1761185;81;25532;-41
2023/01/25 10:44:20;;;;;;;65.80;32.53;;;;;;;-0.10;89.82;101959.77;1761081;81;25590;-41
2023/01/25 10:46:52;;;;;;;62.78;32.33;;;;;;;-0.09;89.73;101958.25;1757889;81;28394;-41
2023/01/25 10:49:44;;;;;;;60.98;31.15;;;;;;;-0.08;89.99;101954.58;1756460;81;25630;-41
2023/01/25 10:52:31;;;;;;;64.82;33.05;;;;;;;-0.06;89.65;101954.38;1757780;81;25561;-41
2023/01/25 10:55:27;;;;;;;63.70;32.13;;;;;;;-0.11;89.14;101958.95;1758234;80;26542;-40
2023/01/25 10:57:57;;;;;;;70.67;34.38;;;;;;;-0.13;89.14;101953.54;1757897;81;25550;-41
2023/01/25 11:00:28;;;;;;;70.08;33.30;;;;;;;-0.13;89.17;101945.56;1757923;81;27367;-42
2023/01/25 11:02:57;;;;;;;69.85;34.40;;;;;;;-0.13;89.17;101945.56;1757326;81;25540;-42
2023/01/25 11:05:29;;;;;;;63.60;33.18;;;;;;;-0.13;89.50;101942.37;1757874;81;25580;-41
2023/01/25 11:07:59;;;;;;;63.00;32.83;;;;;;;-0.09;89.59;101934.30;1757826;81;25558;-40
2023/01/25 11:10:38;;;;;;;64.97;31.27;;;;;;;-0.08;89.46;101931.97;1728344;81;25421;-46
2023/01/25 11:13:20;;;;;;;59.53;31.70;;;;;;;-0.07;89.23;101920.32;1757871;81;27329;-45
2023/01/25 11:16:00;;;;;;;58.00;30.17;;;;;;;-0.05;89.14;101918.28;1757690;81;25818;-47
2023/01/25 11:18:34;;;;;;;57.48;30.05;;;;;;;-0.05;88.82;101908.13;1753003;81;25409;-46
2023/01/25 11:21:10;;;;;;;63.42;31.82;;;;;;;-0.08;88.83;101909.36;1757794;81;25435;-45
2023/01/25 11:23:36;;;;;;;73.15;33.55;;;;;;;-0.03;89.14;101904.78;1757873;81;25539;-44
2023/01/25 11:26:19;;;;;;;60.17;32.28;;;;;;;-0.04;89.02;101909.26;1757762;81;27316;-44
2023/01/25 11:28:48;;;;;;;64.77;32.17;;;;;;;-0.03;89.01;101904.27;1757689;81;25592;-44
2023/01/25 11:31:23;;;;;;;65.80;32.28;;;;;;;-0.05;88.54;101903.64;1757919;81;25569;-46